createdAt,value
2023-05-25T00:01:05.549Z,69.92
2023-05-25T00:03:39.577Z,69.79
2023-05-25T00:06:12.865Z,70.08
2023-05-25T00:08:46.101Z,69.94
2023-05-25T00:11:22.649Z,69.92
2023-05-25T00:13:57.455Z,69.88
2023-05-25T00:16:30.730Z,69.89
2023-05-25T00:19:08.735Z,69.90
2023-05-25T00:21:41.866Z,69.93
2023-05-25T00:24:15.853Z,70.04
2023-05-25T00:26:49.232Z,70.32
2023-05-25T00:29:22.563Z,70.12
2023-05-25T00:31:55.657Z,69.02
2023-05-25T00:34:29.771Z,70.00
2023-05-25T00:37:03.120Z,70.03
2023-05-25T00:39:36.428Z,70.06
2023-05-25T00:42:11.853Z,69.21
2023-05-25T00:44:46.213Z,69.46
2023-05-25T00:47:19.241Z,69.78
2023-05-25T00:49:53.324Z,69.34
2023-05-25T00:52:27.010Z,68.59
2023-05-25T00:55:03.564Z,68.69
2023-05-25T00:57:40.910Z,68.05
2023-05-25T01:00:17.315Z,68.71
2023-05-25T01:02:50.873Z,68.34
2023-05-25T01:05:31.824Z,67.96
2023-05-25T01:08:06.903Z,67.29
2023-05-25T01:10:41.194Z,67.25
2023-05-25T01:13:16.596Z,66.73
2023-05-25T01:15:50.859Z,66.08
2023-05-25T01:18:25.698Z,67.10
2023-05-25T01:21:40.086Z,66.32
2023-05-25T01:24:19.984Z,66.26
2023-05-25T01:27:30.176Z,65.45
2023-05-25T01:30:06.420Z,65.54
2023-05-25T01:32:40.811Z,66.07
2023-05-25T01:35:14.902Z,66.36
2023-05-25T01:37:51.403Z,66.10
2023-05-25T01:40:24.684Z,66.72
2023-05-25T01:42:57.905Z,65.80
2023-05-25T01:45:31.216Z,66.30
2023-05-25T01:48:22.057Z,65.64
2023-05-25T01:51:14.211Z,65.06
2023-05-25T01:53:58.285Z,64.63
2023-05-25T01:56:32.558Z,63.92
2023-05-25T01:59:07.347Z,64.24
2023-05-25T02:01:41.101Z,64.61
2023-05-25T02:04:16.635Z,64.01
2023-05-25T02:06:52.865Z,63.82
2023-05-25T02:09:29.040Z,63.62
2023-05-25T02:12:01.942Z,63.41
2023-05-25T02:14:34.800Z,63.22
2023-05-25T02:17:08.741Z,63.08
2023-05-25T02:19:41.702Z,61.90
2023-05-25T02:22:15.540Z,61.15
2023-05-25T02:24:49.443Z,61.71
2023-05-25T02:27:23.348Z,59.80
2023-05-25T02:29:56.067Z,60.32
2023-05-25T02:32:34.515Z,60.02
2023-05-25T02:35:08.043Z,58.91
2023-05-25T02:37:40.048Z,59.20
2023-05-25T02:40:15.180Z,57.94
2023-05-25T02:42:49.213Z,57.99
2023-05-25T02:45:22.341Z,57.85
2023-05-25T02:47:56.414Z,57.60
2023-05-25T02:50:30.449Z,57.28
2023-05-25T02:53:07.875Z,56.92
2023-05-25T02:55:43.158Z,57.39
2023-05-25T02:58:22.684Z,57.83
2023-05-25T03:01:06.488Z,56.62
2023-05-25T03:03:39.657Z,55.64
2023-05-25T03:06:09.453Z,55.84
2023-05-25T03:08:38.470Z,56.10
2023-05-25T03:11:07.618Z,55.21
2023-05-25T03:13:37.712Z,54.69
2023-05-25T03:16:07.286Z,54.46
2023-05-25T03:18:36.461Z,53.67
2023-05-25T03:21:06.351Z,53.17
2023-05-25T03:23:35.114Z,54.68
2023-05-25T03:26:08.040Z,54.12
2023-05-25T03:28:36.994Z,53.30
2023-05-25T03:31:07.398Z,52.45
2023-05-25T03:33:36.678Z,53.55
2023-05-25T03:36:11.926Z,52.55
2023-05-25T03:38:41.515Z,50.42
2023-05-25T03:41:10.646Z,51.81
2023-05-25T03:43:41.931Z,52.21
2023-05-25T03:46:14.711Z,50.07
2023-05-25T03:48:45.310Z,50.62
2023-05-25T03:51:14.378Z,50.66
2023-05-25T03:53:43.350Z,49.54
2023-05-25T03:56:13.018Z,50.36
2023-05-25T03:58:42.165Z,49.99
2023-05-25T04:01:12.252Z,50.78
2023-05-25T04:03:41.820Z,50.26
2023-05-25T04:06:10.792Z,48.64
2023-05-25T04:08:42.530Z,50.09
2023-05-25T04:11:11.548Z,48.80
2023-05-25T04:13:41.206Z,47.89
2023-05-25T04:16:13.414Z,48.41
2023-05-25T04:18:43.326Z,46.59
2023-05-25T04:21:12.833Z,48.31
2023-05-25T04:23:44.116Z,46.45
2023-05-25T04:26:14.608Z,47.80
2023-05-25T04:28:49.111Z,46.51
2023-05-25T04:31:30.264Z,45.85
2023-05-25T04:34:18.221Z,48.16
2023-05-25T04:36:56.277Z,45.60
2023-05-25T04:39:26.204Z,44.62
2023-05-25T04:41:59.725Z,45.83
2023-05-25T04:44:30.861Z,43.84
2023-05-25T04:47:02.415Z,45.08
2023-05-25T04:49:35.069Z,44.71
2023-05-25T04:52:04.687Z,44.56
2023-05-25T04:54:36.177Z,43.01
2023-05-25T04:57:07.340Z,43.76
2023-05-25T04:59:36.392Z,43.41
2023-05-25T05:02:06.769Z,43.19
2023-05-25T05:04:38.116Z,43.17
2023-05-25T05:07:11.061Z,43.60
2023-05-25T05:09:40.659Z,44.82
2023-05-25T05:12:12.071Z,44.93
2023-05-25T05:14:47.925Z,45.19
2023-05-25T05:17:18.532Z,45.04
2023-05-25T05:19:48.215Z,46.54
2023-05-25T05:22:17.333Z,47.36
2023-05-25T05:24:47.642Z,53.10
2023-05-25T05:27:23.536Z,55.12
2023-05-25T05:29:58.411Z,58.20
2023-05-25T05:32:28.236Z,60.54
2023-05-25T05:35:07.581Z,61.61
2023-05-25T05:37:45.073Z,65.36
2023-05-25T05:40:14.618Z,68.98
2023-05-25T05:42:44.542Z,69.85
2023-05-25T05:45:14.182Z,73.36
2023-05-25T05:47:43.426Z,74.37
2023-05-25T05:50:14.107Z,75.68
2023-05-25T05:52:43.773Z,79.19
2023-05-25T05:55:13.797Z,82.61
2023-05-25T05:57:43.936Z,81.66
2023-05-25T06:00:14.501Z,83.73
2023-05-25T06:02:44.888Z,82.37
2023-05-25T06:05:22.003Z,82.29
2023-05-25T06:07:53.512Z,80.38
2023-05-25T06:10:24.530Z,81.61
2023-05-25T06:12:54.156Z,79.61
2023-05-25T06:15:24.499Z,79.10
2023-05-25T06:17:56.744Z,78.96
2023-05-25T06:20:27.094Z,76.98
2023-05-25T06:22:56.612Z,78.48
2023-05-25T06:25:25.798Z,78.20
2023-05-25T06:27:56.940Z,77.05
2023-05-25T06:30:26.429Z,77.49
2023-05-25T06:32:55.346Z,76.69
2023-05-25T06:35:24.663Z,75.95
2023-05-25T06:37:54.836Z,75.88
2023-05-25T06:40:24.220Z,76.55
2023-05-25T06:42:53.537Z,74.75
2023-05-25T06:45:40.339Z,74.03
2023-05-25T06:48:11.269Z,73.92
2023-05-25T06:50:41.096Z,74.88
2023-05-25T06:53:12.118Z,71.92
2023-05-25T06:58:54.787Z,71.98
2023-05-25T07:01:34.001Z,68.76
2023-05-25T07:04:15.932Z,69.94
2023-05-25T07:06:49.764Z,69.73
2023-05-25T07:09:20.210Z,68.57
2023-05-25T07:11:51.211Z,66.42
2023-05-25T07:14:28.422Z,67.06
2023-05-25T07:17:18.924Z,65.74
2023-05-25T07:20:34.757Z,65.19
2023-05-25T07:23:24.067Z,63.44
2023-05-25T07:26:10.974Z,63.06
2023-05-25T07:28:42.209Z,64.73
2023-05-25T07:31:14.217Z,65.00
2023-05-25T07:33:57.490Z,63.58
2023-05-25T07:36:44.213Z,62.97
2023-05-25T07:39:16.332Z,62.02
2023-05-25T07:41:45.809Z,61.63
2023-05-25T07:44:15.754Z,61.38
2023-05-25T07:46:46.300Z,62.29
2023-05-25T07:49:27.595Z,60.59
2023-05-25T07:52:00.328Z,59.92
2023-05-25T07:54:33.652Z,60.13
2023-05-25T07:57:11.549Z,59.18
2023-05-25T07:59:41.621Z,56.42
2023-05-25T08:02:16.717Z,57.32
2023-05-25T08:04:50.085Z,58.63
2023-05-25T08:07:27.301Z,57.32
2023-05-25T08:10:12.475Z,57.37
2023-05-25T08:12:49.705Z,56.63
2023-05-25T08:15:22.695Z,55.44
2023-05-25T08:17:53.257Z,53.55
2023-05-25T08:20:28.673Z,55.22
2023-05-25T08:23:03.942Z,51.67
2023-05-25T08:25:47.113Z,53.94
2023-05-25T08:28:17.892Z,52.80
2023-05-25T08:30:48.903Z,50.63
2023-05-25T08:33:18.332Z,51.25
2023-05-25T08:35:49.445Z,51.81
2023-05-25T08:38:19.237Z,49.67
2023-05-25T08:41:04.014Z,48.67
2023-05-25T08:43:35.181Z,48.94
2023-05-25T08:46:09.507Z,49.44
2023-05-25T08:48:42.183Z,48.99
2023-05-25T08:51:18.934Z,48.37
2023-05-25T08:53:49.065Z,47.77
2023-05-25T08:56:24.370Z,48.76
2023-05-25T08:59:07.790Z,47.41
2023-05-25T09:01:45.024Z,47.71
2023-05-25T09:04:18.517Z,46.84
2023-05-25T09:07:10.917Z,46.85
2023-05-25T09:09:51.823Z,47.37
2023-05-25T09:12:34.831Z,46.95
2023-05-25T09:15:08.078Z,45.98
2023-05-25T09:17:45.374Z,46.86
2023-05-25T09:20:18.312Z,46.54
2023-05-25T09:22:49.373Z,47.46
2023-05-25T09:25:47.447Z,46.71
2023-05-25T09:28:30.827Z,45.75
2023-05-25T09:31:03.055Z,45.64
2023-05-25T09:33:33.588Z,45.20
2023-05-25T09:36:05.640Z,44.46
2023-05-25T09:38:45.680Z,44.47
2023-05-25T09:41:19.908Z,45.38
2023-05-25T09:44:02.208Z,45.44
2023-05-25T09:47:14.198Z,44.54
2023-05-25T09:50:10.460Z,45.20
2023-05-25T09:52:46.259Z,46.16
2023-05-25T09:55:51.570Z,45.86
2023-05-25T09:58:50.011Z,45.85
2023-05-25T10:01:29.762Z,45.69
2023-05-25T10:04:04.791Z,46.53
2023-05-25T10:06:37.959Z,45.92
2023-05-25T10:09:15.815Z,45.36
2023-05-25T10:11:54.161Z,46.30
2023-05-25T10:14:30.369Z,47.84
2023-05-25T10:17:03.932Z,45.09
2023-05-25T10:19:37.022Z,47.13
2023-05-25T10:22:18.128Z,47.43
2023-05-25T10:25:11.734Z,47.04
2023-05-25T10:28:06.743Z,46.61
2023-05-25T10:30:40.355Z,46.94
2023-05-25T10:33:12.079Z,46.11
2023-05-25T10:35:56.701Z,46.06
2023-05-25T10:38:34.589Z,46.86
2023-05-25T10:41:07.696Z,46.69
2023-05-25T10:43:42.727Z,46.68
2023-05-25T10:46:23.545Z,47.70
2023-05-25T10:48:54.733Z,50.68
2023-05-25T10:51:43.184Z,52.13
2023-05-25T10:54:34.464Z,52.69
2023-05-25T10:57:17.948Z,51.65
2023-05-25T11:00:18.483Z,51.94
2023-05-25T11:02:57.799Z,52.26
2023-05-25T11:05:39.740Z,50.05
2023-05-25T11:08:16.840Z,50.54
2023-05-25T11:10:50.466Z,49.61
2023-05-25T11:13:24.905Z,49.52
2023-05-25T11:16:35.657Z,49.84
2023-05-25T11:19:05.014Z,50.00
2023-05-25T11:21:45.695Z,48.53
2023-05-25T11:24:17.911Z,48.25
2023-05-25T11:27:02.640Z,48.35
2023-05-25T11:29:33.576Z,47.97
2023-05-25T11:32:04.005Z,47.85
2023-05-25T11:34:34.140Z,48.74
2023-05-25T11:37:03.850Z,49.40
2023-05-25T11:39:33.654Z,48.79
2023-05-25T11:42:12.101Z,49.05
2023-05-25T11:44:42.653Z,48.81
2023-05-25T11:47:15.559Z,49.15
2023-05-25T11:49:48.258Z,49.42
2023-05-25T11:52:23.150Z,48.94
2023-05-25T11:54:54.271Z,49.32
2023-05-25T11:57:25.927Z,48.80
2023-05-25T11:59:58.477Z,49.22
2023-05-25T12:02:40.559Z,49.16
2023-05-25T12:05:11.345Z,49.58
2023-05-25T12:07:47.734Z,50.49
2023-05-25T12:10:20.398Z,49.72
2023-05-25T12:12:50.996Z,50.01
2023-05-25T12:15:26.186Z,50.30
2023-05-25T12:17:58.018Z,50.26
2023-05-25T12:20:28.360Z,50.77
2023-05-25T12:22:59.450Z,50.55
2023-05-25T12:25:42.385Z,49.59
2023-05-25T12:28:19.324Z,50.67
2023-05-25T12:30:48.449Z,51.47
2023-05-25T12:33:17.731Z,51.16
2023-05-25T12:35:51.584Z,50.86
2023-05-25T12:38:22.948Z,50.49
2023-05-25T12:41:12.027Z,49.80
2023-05-25T12:43:44.329Z,50.63
2023-05-25T12:46:25.902Z,50.98
2023-05-25T12:48:55.282Z,52.37
2023-05-25T12:51:24.450Z,51.21
2023-05-25T12:53:55.875Z,51.37
2023-05-25T12:56:25.057Z,51.96
2023-05-25T12:58:53.995Z,52.11
2023-05-25T13:01:23.304Z,52.03
2023-05-25T13:03:52.529Z,52.66
2023-05-25T13:06:21.630Z,51.76
2023-05-25T13:08:50.745Z,51.64
2023-05-25T13:11:20.440Z,52.33
2023-05-25T13:13:49.438Z,52.78
2023-05-25T13:16:18.484Z,53.17
2023-05-25T13:18:47.255Z,53.48
2023-05-25T13:21:16.333Z,53.66
2023-05-25T13:23:45.668Z,53.99
2023-05-25T13:26:26.687Z,54.31
2023-05-25T13:29:00.402Z,55.02
2023-05-25T13:31:29.499Z,55.55
2023-05-25T13:34:01.499Z,55.62
2023-05-25T13:36:30.805Z,55.55
2023-05-25T13:39:00.953Z,55.70
2023-05-25T13:41:30.062Z,56.08
2023-05-25T13:43:59.191Z,56.36
2023-05-25T13:46:35.034Z,56.62
2023-05-25T13:49:20.091Z,56.42
2023-05-25T13:52:00.521Z,56.68
2023-05-25T13:54:31.133Z,56.75
2023-05-25T13:56:59.981Z,56.26
2023-05-25T13:59:29.276Z,55.89
2023-05-25T14:01:58.678Z,55.99
2023-05-25T14:04:28.170Z,56.95
2023-05-25T14:06:58.021Z,57.49
2023-05-25T14:09:27.113Z,57.02
2023-05-25T14:11:57.034Z,57.08
2023-05-25T14:14:31.994Z,57.68
2023-05-25T14:17:02.245Z,56.93
2023-05-25T14:19:31.351Z,56.48
2023-05-25T14:22:12.372Z,55.85
2023-05-25T14:24:43.317Z,56.16
2023-05-25T14:27:12.358Z,55.57
2023-05-25T14:29:41.281Z,55.43
2023-05-25T14:32:10.416Z,55.43
2023-05-25T14:34:39.586Z,55.50
2023-05-25T14:37:08.995Z,55.73
2023-05-25T14:39:38.432Z,55.54
2023-05-25T14:42:07.747Z,56.20
2023-05-25T14:44:36.928Z,55.93
2023-05-25T14:47:06.097Z,56.27
2023-05-25T14:49:35.042Z,56.46
2023-05-25T14:52:04.098Z,56.83
2023-05-25T14:54:33.739Z,56.73
2023-05-25T14:57:02.828Z,56.73
2023-05-25T14:59:31.994Z,57.22
2023-05-25T15:02:00.865Z,56.96
2023-05-25T15:04:31.719Z,57.15
2023-05-25T15:07:01.040Z,57.91
2023-05-25T15:09:29.796Z,57.71
2023-05-25T15:11:59.452Z,57.65
2023-05-25T15:14:28.477Z,57.66
2023-05-25T15:16:58.069Z,58.28
2023-05-25T15:19:27.035Z,58.74
2023-05-25T15:21:58.718Z,58.61
2023-05-25T15:24:27.924Z,59.07
2023-05-25T15:26:57.042Z,59.09
2023-05-25T15:29:25.974Z,59.21
2023-05-25T15:31:55.730Z,59.40
2023-05-25T15:34:24.615Z,59.94
2023-05-25T15:36:53.614Z,60.20
2023-05-25T15:39:22.804Z,59.84
2023-05-25T15:41:52.130Z,60.75
2023-05-25T15:44:22.216Z,60.73
2023-05-25T15:46:51.627Z,60.66
2023-05-25T15:49:21.206Z,60.74
2023-05-25T15:51:50.378Z,61.41
2023-05-25T15:54:19.273Z,61.08
2023-05-25T15:56:48.569Z,61.23
2023-05-25T15:59:17.523Z,61.67
2023-05-25T16:01:46.773Z,61.77
2023-05-25T16:04:16.255Z,61.89
2023-05-25T16:06:45.354Z,61.71
2023-05-25T16:09:14.196Z,62.27
2023-05-25T16:11:43.693Z,62.59
2023-05-25T16:14:12.586Z,61.91
2023-05-25T16:16:41.767Z,63.09
2023-05-25T16:19:13.861Z,62.76
2023-05-25T16:21:43.575Z,62.79
2023-05-25T16:24:12.675Z,63.27
2023-05-25T16:26:42.848Z,62.81
2023-05-25T16:29:11.740Z,63.51
2023-05-25T16:31:41.042Z,63.50
2023-05-25T16:34:10.195Z,63.63
2023-05-25T16:36:39.022Z,63.78
2023-05-25T16:39:09.299Z,63.66
2023-05-25T16:41:38.567Z,63.89
2023-05-25T16:44:07.694Z,64.38
2023-05-25T16:46:36.930Z,64.57
2023-05-25T16:49:06.392Z,64.20
2023-05-25T16:51:35.367Z,64.03
2023-05-25T16:54:04.757Z,64.64
2023-05-25T16:56:33.572Z,64.90
2023-05-25T16:59:02.773Z,65.52
2023-05-25T17:01:31.873Z,65.56
2023-05-25T17:04:01.182Z,65.38
2023-05-25T17:06:30.515Z,65.98
2023-05-25T17:09:00.430Z,66.06
2023-05-25T17:11:29.565Z,66.10
2023-05-25T17:13:59.414Z,65.76
2023-05-25T17:16:28.695Z,66.27
2023-05-25T17:18:57.780Z,66.17
2023-05-25T17:21:26.885Z,66.43
2023-05-25T17:23:56.778Z,66.72
2023-05-25T17:26:26.973Z,66.04
2023-05-25T17:28:58.756Z,66.63
2023-05-25T17:31:31.294Z,66.00
2023-05-25T17:34:00.520Z,66.34
2023-05-25T17:36:29.572Z,65.88
2023-05-25T17:38:58.879Z,66.17
2023-05-25T17:41:27.889Z,66.10
2023-05-25T17:43:56.977Z,65.72
2023-05-25T17:46:27.252Z,65.77
2023-05-25T17:48:56.900Z,65.56
2023-05-25T17:51:26.904Z,65.15
2023-05-25T17:53:57.416Z,65.52
2023-05-25T17:56:27.346Z,65.79
2023-05-25T17:58:56.819Z,65.39
2023-05-25T18:01:27.393Z,65.91
2023-05-25T18:04:02.841Z,66.02
2023-05-25T18:06:32.236Z,65.90
2023-05-25T18:09:01.201Z,65.75
2023-05-25T18:11:37.738Z,65.90
2023-05-25T18:14:06.854Z,66.28
2023-05-25T18:16:40.590Z,65.95
2023-05-25T18:19:10.437Z,66.28
2023-05-25T18:21:41.117Z,66.09
2023-05-25T18:24:10.218Z,66.39
2023-05-25T18:26:39.089Z,66.38
2023-05-25T18:29:08.290Z,66.61
2023-05-25T18:31:37.178Z,67.00
2023-05-25T18:34:08.251Z,66.62
2023-05-25T18:36:37.327Z,67.23
2023-05-25T18:39:06.569Z,67.50
2023-05-25T18:41:35.825Z,67.72
2023-05-25T18:44:04.788Z,67.24
2023-05-25T18:46:34.061Z,67.33
2023-05-25T18:49:03.289Z,67.71
2023-05-25T18:51:32.481Z,67.66
2023-05-25T18:54:01.772Z,67.89
2023-05-25T19:09:07.884Z,68.81
2023-05-25T19:11:40.055Z,69.23
2023-05-25T19:14:09.221Z,69.40
2023-05-25T19:16:38.546Z,69.43
2023-05-25T19:19:08.132Z,69.65
2023-05-25T19:21:37.875Z,70.45
2023-05-25T19:24:07.085Z,70.19
2023-05-25T19:26:38.916Z,70.98
2023-05-25T19:29:07.968Z,71.10
2023-05-25T19:31:37.488Z,71.01
2023-05-25T19:34:07.275Z,71.45
2023-05-25T19:36:36.361Z,71.34
2023-05-25T19:39:05.909Z,72.02
2023-05-25T19:41:35.102Z,71.02
2023-05-25T19:44:04.327Z,71.25
2023-05-25T19:46:33.724Z,71.98
2023-05-25T19:49:03.012Z,71.67
2023-05-25T19:51:34.155Z,72.12
2023-05-25T19:54:03.326Z,71.80
2023-05-25T19:56:33.068Z,72.01
2023-05-25T19:59:02.169Z,72.12
2023-05-25T20:01:34.011Z,71.87
2023-05-25T20:04:04.023Z,71.95
2023-05-25T20:06:35.040Z,71.18
2023-05-25T20:09:05.330Z,70.33
2023-05-25T20:11:35.500Z,71.12
2023-05-25T20:14:04.765Z,71.28
2023-05-25T20:16:34.645Z,71.89
2023-05-25T20:19:08.834Z,72.13
2023-05-25T20:21:38.846Z,71.04
2023-05-25T20:24:11.329Z,71.76
2023-05-25T20:26:44.726Z,71.25
2023-05-25T20:29:17.128Z,71.09
2023-05-25T20:31:51.477Z,71.20
2023-05-25T20:34:24.516Z,70.96
2023-05-25T20:36:57.897Z,70.38
2023-05-25T20:39:32.275Z,70.64
2023-05-25T20:42:04.650Z,71.33
2023-05-25T20:44:39.716Z,70.81
2023-05-25T20:47:13.125Z,71.23
2023-05-25T20:49:46.497Z,72.93
2023-05-25T20:52:18.827Z,73.35
2023-05-25T20:54:51.896Z,74.32
2023-05-25T20:57:24.324Z,73.99
2023-05-25T20:59:59.628Z,75.31
2023-05-25T21:02:32.827Z,75.28
2023-05-25T21:05:06.252Z,75.29
2023-05-25T21:07:38.565Z,75.79
2023-05-25T21:10:12.967Z,75.81
2023-05-25T21:12:45.166Z,75.88
2023-05-25T21:15:19.336Z,74.99
2023-05-25T21:17:51.768Z,75.40
2023-05-25T21:20:25.200Z,75.35
2023-05-25T21:22:59.402Z,75.99
2023-05-25T21:25:35.558Z,76.52
2023-05-25T21:28:08.968Z,76.89
2023-05-25T21:30:42.281Z,76.81
2023-05-25T21:33:15.331Z,77.05
2023-05-25T21:35:48.726Z,76.98
2023-05-25T21:38:21.126Z,77.21
2023-05-25T21:40:53.425Z,76.84
2023-05-25T21:43:26.598Z,76.78
2023-05-25T21:46:00.002Z,77.12
2023-05-25T21:48:32.259Z,77.44
2023-05-25T21:51:05.604Z,77.21
2023-05-25T21:53:37.860Z,76.95
2023-05-25T21:56:11.347Z,76.47
2023-05-25T21:58:44.651Z,75.93
2023-05-25T22:01:16.983Z,76.27
2023-05-25T22:03:50.200Z,76.33
2023-05-25T22:06:22.547Z,76.18
2023-05-25T22:08:55.741Z,76.53
2023-05-25T22:11:29.169Z,76.75
2023-05-25T22:14:01.571Z,76.40
2023-05-25T22:16:34.877Z,76.68
2023-05-25T22:19:07.836Z,76.91
2023-05-25T22:21:41.238Z,77.40
2023-05-25T22:24:13.633Z,77.19
2023-05-25T22:26:46.985Z,77.53
2023-05-25T22:29:19.405Z,77.23
2023-05-25T22:31:53.675Z,77.25
2023-05-25T22:34:26.852Z,76.79
2023-05-25T22:36:59.173Z,77.07
2023-05-25T22:39:35.494Z,77.04
2023-05-25T22:42:11.800Z,78.46
2023-05-25T22:44:44.171Z,78.27
2023-05-25T22:47:18.270Z,78.36
2023-05-25T22:49:51.654Z,78.03
2023-05-25T22:52:26.970Z,78.35
2023-05-25T22:54:59.238Z,78.10
2023-05-25T22:57:34.263Z,78.51
2023-05-25T23:00:08.077Z,79.08
2023-05-25T23:02:41.198Z,79.71
2023-05-25T23:05:15.472Z,79.65
2023-05-25T23:07:49.440Z,79.49
2023-05-25T23:10:22.828Z,79.73
2023-05-25T23:12:57.212Z,79.55
2023-05-25T23:15:30.510Z,79.48
2023-05-25T23:18:03.605Z,78.92
2023-05-25T23:20:39.007Z,79.22
2023-05-25T23:23:12.285Z,79.73
2023-05-25T23:25:44.702Z,79.67
2023-05-25T23:28:16.910Z,80.29
2023-05-25T23:30:50.323Z,80.21
2023-05-25T23:33:23.615Z,80.55
2023-05-25T23:35:56.823Z,80.61
2023-05-25T23:38:29.241Z,80.23
2023-05-25T23:41:01.653Z,79.21
2023-05-25T23:43:34.010Z,79.40
2023-05-25T23:46:07.171Z,80.31
2023-05-25T23:48:39.604Z,80.57
2023-05-25T23:51:12.996Z,80.02
2023-05-25T23:53:47.133Z,79.95
2023-05-25T23:56:21.183Z,79.41
2023-05-25T23:58:53.615Z,79.47
